createdAt,value
2018-10-18T00:00:15.977Z,16.59
2018-10-18T00:01:16.001Z,16.54
2018-10-18T00:02:16.024Z,16.55
2018-10-18T00:03:16.217Z,16.54
2018-10-18T00:04:16.106Z,16.61
2018-10-18T00:05:15.962Z,16.58
2018-10-18T00:06:16.065Z,16.50
2018-10-18T00:07:16.012Z,16.51
2018-10-18T00:08:16.013Z,16.58
2018-10-18T00:09:16.030Z,16.49
2018-10-18T00:10:15.999Z,16.47
2018-10-18T00:11:16.038Z,16.51
2018-10-18T00:12:16.072Z,16.55
2018-10-18T00:13:16.034Z,16.50
2018-10-18T00:14:16.161Z,16.54
2018-10-18T00:15:16.105Z,16.57
2018-10-18T00:16:16.177Z,16.57
2018-10-18T00:17:16.144Z,16.57
2018-10-18T00:18:16.256Z,16.54
2018-10-18T00:19:16.088Z,16.50
2018-10-18T00:20:16.133Z,16.55
2018-10-18T00:21:16.137Z,16.51
2018-10-18T00:22:16.116Z,16.47
2018-10-18T00:23:16.112Z,16.47
2018-10-18T00:24:16.222Z,16.50
2018-10-18T00:25:16.150Z,16.51
2018-10-18T00:26:16.169Z,16.46
2018-10-18T00:27:16.137Z,16.54
2018-10-18T00:28:16.180Z,16.47
2018-10-18T00:29:16.211Z,16.50
2018-10-18T00:30:16.305Z,16.49
2018-10-18T00:31:16.213Z,16.50
2018-10-18T00:32:16.300Z,16.49
2018-10-18T00:33:16.193Z,16.37
2018-10-18T00:34:16.285Z,16.50
2018-10-18T00:35:16.986Z,16.39
2018-10-18T00:36:16.380Z,16.44
2018-10-18T00:37:16.221Z,16.41
2018-10-18T00:38:16.363Z,16.41
2018-10-18T00:39:16.280Z,16.43
2018-10-18T00:40:16.262Z,16.46
2018-10-18T00:41:17.073Z,16.46
2018-10-18T00:42:16.375Z,16.43
2018-10-18T00:43:16.272Z,16.40
2018-10-18T00:44:16.551Z,16.41
2018-10-18T00:45:16.279Z,16.43
2018-10-18T00:46:16.374Z,16.40
2018-10-18T00:47:17.077Z,16.43
2018-10-18T00:48:16.401Z,16.44
2018-10-18T00:49:16.313Z,16.36
2018-10-18T00:50:16.377Z,16.40
2018-10-18T00:51:16.384Z,16.41
2018-10-18T00:52:16.337Z,16.34
2018-10-18T00:53:16.422Z,16.39
2018-10-18T00:54:16.423Z,16.34
2018-10-18T00:55:16.371Z,16.36
2018-10-18T00:56:16.438Z,16.32
2018-10-18T00:57:16.389Z,16.32
2018-10-18T00:58:16.429Z,16.36
2018-10-18T00:59:16.403Z,16.32
2018-10-18T01:00:16.474Z,16.32
2018-10-18T01:01:16.463Z,16.39
2018-10-18T01:02:16.483Z,16.39
2018-10-18T01:03:16.436Z,16.32
2018-10-18T01:04:16.440Z,16.28
2018-10-18T01:05:16.459Z,16.34
2018-10-18T01:06:16.515Z,16.28
2018-10-18T01:07:16.506Z,16.25
2018-10-18T01:08:16.563Z,16.28
2018-10-18T01:09:16.503Z,16.26
2018-10-18T01:10:16.490Z,16.25
2018-10-18T01:11:16.527Z,16.28
2018-10-18T01:12:16.621Z,16.31
2018-10-18T01:13:16.549Z,16.29
2018-10-18T01:14:16.595Z,16.26
2018-10-18T01:15:16.532Z,16.28
2018-10-18T01:16:16.538Z,16.28
2018-10-18T01:17:16.536Z,16.29
2018-10-18T01:18:16.687Z,16.31
2018-10-18T01:19:16.610Z,16.25
2018-10-18T01:20:16.649Z,16.28
2018-10-18T01:21:16.569Z,16.26
2018-10-18T01:22:16.602Z,16.34
2018-10-18T01:23:17.135Z,16.26
2018-10-18T01:24:19.983Z,16.28
2018-10-18T01:25:16.643Z,16.25
2018-10-18T01:26:16.757Z,16.25
2018-10-18T01:27:16.829Z,16.25
2018-10-18T01:28:16.656Z,16.26
2018-10-18T01:29:16.704Z,16.25
2018-10-18T01:30:16.711Z,16.18
2018-10-18T01:31:16.663Z,16.24
2018-10-18T01:32:16.742Z,16.24
2018-10-18T01:33:16.673Z,16.16
2018-10-18T01:34:16.695Z,16.22
2018-10-18T01:35:16.707Z,16.17
2018-10-18T01:36:16.713Z,16.25
2018-10-18T01:37:16.737Z,16.16
2018-10-18T01:38:16.766Z,16.22
2018-10-18T01:39:16.727Z,16.16
2018-10-18T01:40:16.772Z,16.25
2018-10-18T01:41:16.744Z,16.17
2018-10-18T01:42:16.933Z,16.10
2018-10-18T01:43:16.753Z,16.10
2018-10-18T01:44:16.884Z,16.13
2018-10-18T01:45:16.813Z,16.16
2018-10-18T01:46:16.770Z,16.18
2018-10-18T01:47:16.827Z,16.16
2018-10-18T01:48:19.002Z,16.13
2018-10-18T01:49:16.797Z,16.22
2018-10-18T01:50:16.878Z,16.08
2018-10-18T01:51:16.812Z,16.12
2018-10-18T01:52:16.874Z,16.08
2018-10-18T01:53:16.862Z,16.06
2018-10-18T01:54:16.985Z,16.09
2018-10-18T01:55:16.838Z,16.03
2018-10-18T01:56:16.870Z,16.05
2018-10-18T01:57:16.864Z,16.06
2018-10-18T01:58:16.913Z,15.99
2018-10-18T01:59:16.914Z,16.00
2018-10-18T02:00:16.930Z,16.06
2018-10-18T02:01:16.880Z,16.02
2018-10-18T02:02:16.945Z,16.00
2018-10-18T02:03:17.114Z,16.02
2018-10-18T02:04:16.954Z,16.00
2018-10-18T02:05:16.943Z,16.00
2018-10-18T02:06:17.221Z,16.03
2018-10-18T02:07:16.958Z,15.92
2018-10-18T02:08:17.055Z,15.98
2018-10-18T02:09:17.440Z,16.02
2018-10-18T02:10:17.020Z,15.98
2018-10-18T02:11:16.962Z,16.00
2018-10-18T02:12:17.619Z,15.96
2018-10-18T02:13:16.999Z,15.98
2018-10-18T02:14:16.998Z,15.94
2018-10-18T02:15:18.092Z,15.98
2018-10-18T02:16:17.033Z,15.94
2018-10-18T02:17:17.055Z,15.87
2018-10-18T02:18:17.341Z,15.91
2018-10-18T02:19:17.148Z,15.88
2018-10-18T02:20:17.058Z,15.85
2018-10-18T02:21:17.197Z,15.90
2018-10-18T02:22:17.068Z,15.88
2018-10-18T02:23:17.061Z,15.94
2018-10-18T02:24:17.368Z,15.88
2018-10-18T02:25:17.406Z,15.88
2018-10-18T02:26:17.140Z,15.85
2018-10-18T02:27:17.989Z,15.90
2018-10-18T02:28:17.120Z,15.88
2018-10-18T02:29:17.124Z,15.85
2018-10-18T02:30:17.296Z,15.83
2018-10-18T02:31:17.152Z,15.85
2018-10-18T02:32:17.133Z,15.84
2018-10-18T02:33:17.164Z,15.78
2018-10-18T02:34:17.183Z,15.85
2018-10-18T02:35:17.171Z,15.90
2018-10-18T02:36:17.381Z,15.81
2018-10-18T02:37:17.189Z,15.83
2018-10-18T02:38:17.228Z,15.80
2018-10-18T02:39:17.270Z,15.87
2018-10-18T02:40:17.310Z,15.83
2018-10-18T02:41:17.200Z,15.87
2018-10-18T02:42:17.722Z,15.78
2018-10-18T02:43:17.212Z,15.83
2018-10-18T02:44:17.221Z,15.87
2018-10-18T02:45:17.346Z,15.88
2018-10-18T02:46:17.286Z,15.91
2018-10-18T02:47:17.274Z,15.91
2018-10-18T02:48:18.132Z,15.80
2018-10-18T02:49:17.265Z,15.80
2018-10-18T02:50:17.278Z,15.81
2018-10-18T02:51:17.632Z,15.80
2018-10-18T02:52:17.307Z,15.75
2018-10-18T02:53:17.335Z,15.85
2018-10-18T02:54:17.732Z,15.70
2018-10-18T02:55:17.317Z,15.94
2018-10-18T02:56:17.334Z,15.70
2018-10-18T02:57:18.108Z,15.75
2018-10-18T02:58:17.349Z,15.73
2018-10-18T02:59:17.364Z,15.81
2018-10-18T03:00:17.506Z,15.84
2018-10-18T03:01:17.370Z,15.81
2018-10-18T03:02:17.382Z,15.85
2018-10-18T03:03:17.544Z,15.76
2018-10-18T03:04:17.433Z,15.78
2018-10-18T03:05:17.386Z,15.87
2018-10-18T03:06:17.479Z,15.72
2018-10-18T03:07:17.434Z,15.81
2018-10-18T03:08:17.417Z,15.76
2018-10-18T03:09:17.570Z,15.78
2018-10-18T03:10:17.428Z,15.80
2018-10-18T03:11:17.551Z,15.73
2018-10-18T03:12:17.713Z,15.80
2018-10-18T03:13:17.444Z,15.83
2018-10-18T03:14:17.455Z,15.75
2018-10-18T03:15:17.541Z,15.73
2018-10-18T03:16:17.511Z,15.85
2018-10-18T03:17:17.478Z,15.83
2018-10-18T03:18:17.910Z,15.81
2018-10-18T03:19:17.504Z,15.76
2018-10-18T03:20:17.507Z,15.81
2018-10-18T03:21:18.106Z,15.78
2018-10-18T03:22:17.554Z,15.84
2018-10-18T03:23:17.538Z,15.80
2018-10-18T03:24:18.119Z,15.83
2018-10-18T03:25:17.551Z,15.76
2018-10-18T03:26:17.548Z,15.80
2018-10-18T03:27:17.770Z,15.81
2018-10-18T03:28:17.565Z,15.78
2018-10-18T03:29:17.595Z,15.78
2018-10-18T03:30:17.958Z,15.75
2018-10-18T03:31:17.588Z,15.80
2018-10-18T03:32:17.614Z,15.73
2018-10-18T03:33:18.135Z,15.78
2018-10-18T03:34:17.628Z,15.75
2018-10-18T03:35:18.151Z,15.72
2018-10-18T03:36:18.685Z,15.76
2018-10-18T03:37:17.663Z,15.76
2018-10-18T03:38:17.644Z,15.76
2018-10-18T03:39:18.594Z,15.78
2018-10-18T03:40:17.706Z,15.67
2018-10-18T03:41:17.733Z,15.70
2018-10-18T03:42:18.025Z,15.66
2018-10-18T03:43:17.699Z,15.67
2018-10-18T03:44:17.685Z,15.69
2018-10-18T03:45:18.044Z,15.73
2018-10-18T03:46:17.763Z,15.65
2018-10-18T03:47:17.733Z,15.69
2018-10-18T03:48:18.576Z,15.66
2018-10-18T03:49:17.732Z,15.67
2018-10-18T03:50:17.735Z,15.67
2018-10-18T03:51:17.937Z,15.66
2018-10-18T03:52:17.802Z,15.67
2018-10-18T03:53:17.777Z,15.73
2018-10-18T03:54:17.836Z,15.67
2018-10-18T03:55:17.812Z,15.69
2018-10-18T03:56:17.782Z,15.60
2018-10-18T03:57:17.793Z,15.73
2018-10-18T03:58:17.816Z,15.67
2018-10-18T03:59:17.829Z,15.60
2018-10-18T04:00:18.036Z,15.62
2018-10-18T04:01:17.859Z,15.69
2018-10-18T04:02:17.938Z,15.70
2018-10-18T04:03:17.873Z,15.62
2018-10-18T04:04:17.896Z,15.59
2018-10-18T04:05:17.878Z,15.65
2018-10-18T04:06:17.916Z,15.62
2018-10-18T04:07:17.878Z,15.65
2018-10-18T04:08:17.881Z,15.66
2018-10-18T04:09:17.926Z,15.60
2018-10-18T04:10:17.949Z,15.65
2018-10-18T04:11:18.192Z,15.69
2018-10-18T04:12:18.027Z,15.63
2018-10-18T04:13:17.934Z,15.65
2018-10-18T04:14:17.973Z,15.66
2018-10-18T04:15:17.929Z,15.70
2018-10-18T04:16:17.983Z,15.65
2018-10-18T04:17:17.960Z,15.63
2018-10-18T04:18:18.010Z,15.69
2018-10-18T04:19:18.004Z,15.63
2018-10-18T04:20:17.966Z,15.72
2018-10-18T04:21:17.992Z,15.70
2018-10-18T04:22:18.003Z,15.69
2018-10-18T04:23:18.072Z,15.60
2018-10-18T04:24:18.110Z,15.63
2018-10-18T04:25:18.068Z,15.63
2018-10-18T04:26:18.033Z,15.59
2018-10-18T04:27:18.035Z,15.66
2018-10-18T04:28:18.042Z,15.62
2018-10-18T04:29:18.055Z,15.72
2018-10-18T04:30:18.178Z,15.67
2018-10-18T04:31:18.070Z,15.62
2018-10-18T04:32:18.124Z,15.62
2018-10-18T04:33:18.100Z,15.57
2018-10-18T04:34:18.106Z,15.67
2018-10-18T04:35:18.080Z,15.59
2018-10-18T04:36:18.264Z,15.59
2018-10-18T04:37:18.122Z,15.57
2018-10-18T04:38:18.111Z,15.55
2018-10-18T04:39:18.116Z,15.57
2018-10-18T04:40:18.154Z,15.59
2018-10-18T04:41:18.221Z,15.57
2018-10-18T04:42:18.197Z,15.65
2018-10-18T04:43:18.143Z,15.54
2018-10-18T04:44:18.146Z,15.52
2018-10-18T04:45:18.157Z,15.62
2018-10-18T04:46:18.233Z,15.52
2018-10-18T04:47:18.273Z,15.52
2018-10-18T04:48:18.337Z,15.57
2018-10-18T04:49:18.396Z,15.50
2018-10-18T04:50:18.200Z,15.50
2018-10-18T04:51:18.205Z,15.60
2018-10-18T04:52:18.356Z,15.47
2018-10-18T04:53:18.375Z,15.57
2018-10-18T04:54:18.450Z,15.52
2018-10-18T04:55:18.442Z,15.59
2018-10-18T04:56:18.647Z,15.60
2018-10-18T04:57:18.246Z,15.57
2018-10-18T04:58:18.254Z,15.60
2018-10-18T04:59:18.397Z,15.54
2018-10-18T05:00:18.263Z,15.57
2018-10-18T05:01:19.148Z,15.51
2018-10-18T05:02:19.132Z,15.50
2018-10-18T05:03:18.331Z,15.59
2018-10-18T05:04:18.312Z,15.57
2018-10-18T05:05:18.444Z,15.57
2018-10-18T05:06:18.331Z,15.57
2018-10-18T05:07:18.448Z,15.60
2018-10-18T05:08:18.669Z,15.52
2018-10-18T05:09:18.333Z,15.54
2018-10-18T05:10:18.338Z,15.62
2018-10-18T05:11:18.406Z,15.51
2018-10-18T05:12:18.402Z,15.50
2018-10-18T05:13:18.507Z,15.60
2018-10-18T05:14:18.390Z,15.52
2018-10-18T05:15:18.385Z,15.51
2018-10-18T05:16:18.452Z,15.47
2018-10-18T05:17:18.667Z,15.48
2018-10-18T05:18:18.405Z,15.44
2018-10-18T05:19:18.512Z,15.50
2018-10-18T05:20:18.447Z,15.41
2018-10-18T05:21:18.487Z,15.45
2018-10-18T05:22:18.435Z,15.47
2018-10-18T05:23:18.460Z,15.41
2018-10-18T05:24:18.534Z,15.47
2018-10-18T05:25:18.567Z,15.39
2018-10-18T05:26:18.473Z,15.43
2018-10-18T05:27:18.512Z,15.47
2018-10-18T05:28:18.505Z,15.39
2018-10-18T05:29:18.495Z,15.43
2018-10-18T05:30:18.523Z,15.48
2018-10-18T05:31:18.677Z,15.41
2018-10-18T05:32:18.645Z,15.44
2018-10-18T05:33:18.591Z,15.44
2018-10-18T05:34:18.552Z,15.45
2018-10-18T05:35:18.553Z,15.37
2018-10-18T05:36:18.558Z,15.41
2018-10-18T05:37:18.634Z,15.35
2018-10-18T05:38:18.565Z,15.30
2018-10-18T05:39:18.604Z,15.35
2018-10-18T05:40:18.819Z,15.33
2018-10-18T05:41:18.597Z,15.33
2018-10-18T05:42:18.625Z,15.35
2018-10-18T05:43:18.698Z,15.32
2018-10-18T05:44:18.614Z,15.36
2018-10-18T05:45:18.851Z,15.37
2018-10-18T05:46:18.728Z,15.30
2018-10-18T05:47:18.670Z,15.29
2018-10-18T05:48:18.636Z,15.33
2018-10-18T05:49:18.890Z,15.36
2018-10-18T05:50:19.146Z,15.37
2018-10-18T05:51:18.697Z,15.35
2018-10-18T05:52:19.081Z,15.36
2018-10-18T05:53:18.827Z,15.32
2018-10-18T05:54:18.861Z,15.36
2018-10-18T05:55:18.694Z,15.36
2018-10-18T05:56:18.711Z,15.35
2018-10-18T05:57:18.729Z,15.41
2018-10-18T05:58:18.711Z,15.36
2018-10-18T05:59:18.716Z,15.35
2018-10-18T06:00:18.924Z,15.41
2018-10-18T06:01:18.759Z,15.41
2018-10-18T06:02:18.733Z,15.35
2018-10-18T06:03:18.891Z,15.45
2018-10-18T06:04:18.748Z,15.45
2018-10-18T06:05:18.755Z,15.35
2018-10-18T06:06:18.799Z,15.44
2018-10-18T06:07:18.903Z,15.43
2018-10-18T06:08:18.824Z,15.36
2018-10-18T06:09:18.863Z,15.39
2018-10-18T06:10:18.833Z,15.41
2018-10-18T06:11:18.820Z,15.41
2018-10-18T06:12:18.817Z,15.39
2018-10-18T06:13:19.031Z,15.47
2018-10-18T06:14:18.850Z,15.45
2018-10-18T06:15:19.138Z,15.45
2018-10-18T06:16:19.030Z,15.43
2018-10-18T06:17:18.994Z,15.45
2018-10-18T06:18:18.867Z,15.44
2018-10-18T06:19:18.950Z,15.41
2018-10-18T06:20:18.887Z,15.50
2018-10-18T06:21:19.010Z,15.48
2018-10-18T06:22:18.911Z,15.51
2018-10-18T06:23:18.970Z,15.45
2018-10-18T06:24:18.989Z,15.54
2018-10-18T06:25:19.016Z,15.47
2018-10-18T06:26:18.937Z,15.47
2018-10-18T06:27:19.609Z,15.52
2018-10-18T06:28:19.001Z,15.51
2018-10-18T06:29:18.946Z,15.52
2018-10-18T06:30:19.625Z,15.57
2018-10-18T06:31:18.967Z,15.52
2018-10-18T06:32:18.998Z,15.50
2018-10-18T06:33:18.974Z,15.55
2018-10-18T06:34:18.994Z,15.52
2018-10-18T06:35:19.001Z,15.57
2018-10-18T06:36:19.009Z,15.57
2018-10-18T06:37:19.201Z,15.65
2018-10-18T06:38:19.304Z,15.60
2018-10-18T06:39:19.116Z,15.63
2018-10-18T06:40:19.018Z,15.63
2018-10-18T06:41:19.172Z,15.66
2018-10-18T06:42:19.049Z,15.65
2018-10-18T06:43:19.092Z,15.65
2018-10-18T06:44:19.075Z,15.67
2018-10-18T06:45:19.067Z,15.73
2018-10-18T06:46:19.068Z,15.63
2018-10-18T06:47:19.174Z,15.69
2018-10-18T06:48:19.173Z,15.67
2018-10-18T06:49:19.159Z,15.73
2018-10-18T06:50:19.203Z,15.76
2018-10-18T06:51:19.146Z,15.78
2018-10-18T06:52:19.112Z,15.85
2018-10-18T06:53:19.171Z,15.83
2018-10-18T06:54:19.197Z,15.76
2018-10-18T06:55:19.252Z,15.72
2018-10-18T06:56:20.113Z,15.80
2018-10-18T06:57:19.194Z,15.88
2018-10-18T06:58:19.183Z,15.81
2018-10-18T06:59:20.018Z,15.80
2018-10-18T07:00:19.275Z,15.80
2018-10-18T07:01:19.231Z,15.87
2018-10-18T07:02:19.238Z,15.88
2018-10-18T07:03:19.215Z,15.92
2018-10-18T07:04:19.645Z,15.91
2018-10-18T07:05:19.214Z,15.98
2018-10-18T07:06:19.349Z,16.00
2018-10-18T07:07:19.228Z,15.98
2018-10-18T07:08:19.273Z,15.96
2018-10-18T07:09:19.322Z,16.02
2018-10-18T07:10:19.264Z,16.06
2018-10-18T07:11:19.288Z,16.13
2018-10-18T07:12:19.276Z,16.13
2018-10-18T07:13:19.294Z,16.17
2018-10-18T07:14:19.291Z,16.09
2018-10-18T07:15:19.310Z,16.17
2018-10-18T07:16:19.504Z,16.22
2018-10-18T07:17:19.466Z,16.22
2018-10-18T07:18:19.370Z,16.31
2018-10-18T07:19:19.363Z,16.41
2018-10-18T07:20:19.348Z,16.34
2018-10-18T07:21:19.360Z,16.32
2018-10-18T07:22:19.564Z,16.44
2018-10-18T07:23:19.405Z,16.57
2018-10-18T07:24:19.381Z,16.43
2018-10-18T07:25:19.688Z,16.54
2018-10-18T07:26:19.417Z,16.58
2018-10-18T07:27:19.395Z,16.62
2018-10-18T07:28:20.164Z,16.58
2018-10-18T07:29:19.465Z,16.59
2018-10-18T07:30:19.476Z,16.68
2018-10-18T07:31:19.781Z,16.74
2018-10-18T07:32:19.441Z,16.74
2018-10-18T07:33:19.484Z,16.73
2018-10-18T07:34:19.481Z,16.84
2018-10-18T07:35:19.472Z,16.77
2018-10-18T07:36:19.492Z,16.61
2018-10-18T07:37:19.512Z,16.84
2018-10-18T07:38:19.567Z,16.86
2018-10-18T07:39:19.503Z,16.83
2018-10-18T07:40:19.564Z,16.89
2018-10-18T07:41:19.573Z,16.79
2018-10-18T07:42:19.575Z,16.84
2018-10-18T07:43:19.548Z,16.86
2018-10-18T07:44:19.565Z,16.82
2018-10-18T07:45:19.564Z,16.89
2018-10-18T07:46:19.644Z,16.87
2018-10-18T07:47:19.563Z,16.87
2018-10-18T07:48:19.674Z,16.84
2018-10-18T07:49:19.591Z,16.80
2018-10-18T07:50:19.600Z,16.83
2018-10-18T07:51:21.181Z,16.80
2018-10-18T07:52:19.617Z,16.80
2018-10-18T07:53:19.755Z,16.91
2018-10-18T07:54:21.547Z,16.87
2018-10-18T07:55:19.663Z,16.89
2018-10-18T07:56:19.641Z,16.83
2018-10-18T07:57:19.829Z,16.86
2018-10-18T07:58:19.680Z,16.87
2018-10-18T07:59:19.676Z,16.91
2018-10-18T08:00:19.781Z,16.77
2018-10-18T08:01:19.703Z,16.84
2018-10-18T08:02:19.722Z,16.77
2018-10-18T08:03:19.727Z,16.89
2018-10-18T08:04:19.708Z,16.91
2018-10-18T08:05:19.717Z,16.83
2018-10-18T08:06:19.783Z,16.91
2018-10-18T08:07:19.740Z,16.80
2018-10-18T08:08:19.776Z,16.91
2018-10-18T08:09:19.780Z,16.77
2018-10-18T08:10:19.777Z,16.80
2018-10-18T08:11:19.795Z,16.74
2018-10-18T08:12:19.784Z,16.73
2018-10-18T08:13:19.892Z,16.77
2018-10-18T08:14:19.987Z,16.87
2018-10-18T08:15:19.843Z,16.79
2018-10-18T08:16:19.865Z,16.86
2018-10-18T08:17:20.253Z,16.76
2018-10-18T08:18:19.848Z,16.76
2018-10-18T08:19:20.190Z,16.87
2018-10-18T08:20:19.861Z,16.82
2018-10-18T08:21:19.893Z,16.94
2018-10-18T08:22:19.904Z,16.92
2018-10-18T08:23:19.891Z,16.83
2018-10-18T08:24:19.913Z,16.89
2018-10-18T08:25:20.007Z,16.92
2018-10-18T08:26:19.898Z,16.94
2018-10-18T08:27:19.959Z,16.91
2018-10-18T08:28:19.951Z,16.94
2018-10-18T08:29:19.936Z,16.91
2018-10-18T08:30:19.940Z,16.87
2018-10-18T08:31:20.055Z,16.95
2018-10-18T08:32:19.972Z,16.95
2018-10-18T08:33:19.964Z,16.97
2018-10-18T08:34:20.103Z,16.98
2018-10-18T08:35:19.982Z,16.97
2018-10-18T08:36:19.987Z,16.94
2018-10-18T08:37:20.373Z,16.92
2018-10-18T08:38:20.105Z,16.98
2018-10-18T08:39:20.006Z,17.05
2018-10-18T08:40:20.748Z,16.99
2018-10-18T08:41:20.021Z,17.02
2018-10-18T08:42:20.047Z,16.98
2018-10-18T08:43:20.075Z,16.99
2018-10-18T08:44:20.107Z,17.14
2018-10-18T08:45:20.069Z,17.13
2018-10-18T08:46:20.109Z,17.10
2018-10-18T08:47:20.085Z,17.10
2018-10-18T08:48:20.091Z,17.12
2018-10-18T08:49:20.122Z,17.10
2018-10-18T08:50:20.104Z,17.10
2018-10-18T08:51:20.146Z,17.13
2018-10-18T08:52:20.144Z,17.13
2018-10-18T08:53:20.149Z,17.27
2018-10-18T08:54:20.156Z,17.19
2018-10-18T08:55:20.364Z,17.23
2018-10-18T08:56:20.194Z,17.20
2018-10-18T08:57:20.335Z,17.23
2018-10-18T08:58:20.200Z,17.28
2018-10-18T08:59:20.464Z,17.28
2018-10-18T09:00:21.161Z,17.31
2018-10-18T09:01:20.232Z,17.32
2018-10-18T09:02:20.212Z,17.37
2018-10-18T09:03:20.215Z,17.32
2018-10-18T09:04:20.266Z,17.34
2018-10-18T09:05:20.296Z,17.38
2018-10-18T09:06:20.252Z,17.39
2018-10-18T09:07:20.270Z,17.42
2018-10-18T09:08:20.328Z,17.42
2018-10-18T09:09:20.297Z,17.44
2018-10-18T09:10:20.283Z,17.39
2018-10-18T09:11:20.289Z,17.50
2018-10-18T09:12:22.037Z,17.44
2018-10-18T09:13:20.391Z,17.47
2018-10-18T09:14:20.377Z,17.49
2018-10-18T09:15:21.552Z,17.50
2018-10-18T09:16:20.480Z,17.56
2018-10-18T09:17:20.454Z,17.56
2018-10-18T09:18:20.462Z,17.63
2018-10-18T09:19:20.435Z,17.56
2018-10-18T09:20:20.671Z,17.50
2018-10-18T09:21:20.381Z,17.59
2018-10-18T09:22:20.403Z,17.54
2018-10-18T09:23:20.489Z,17.53
2018-10-18T09:24:20.410Z,17.60
2018-10-18T09:25:20.571Z,17.60
2018-10-18T09:26:20.428Z,17.57
2018-10-18T09:27:20.440Z,17.63
2018-10-18T09:28:20.977Z,17.66
2018-10-18T09:29:20.471Z,17.57
2018-10-18T09:30:20.590Z,17.57
2018-10-18T09:31:20.525Z,17.52
2018-10-18T09:32:20.475Z,17.54
2018-10-18T09:33:20.487Z,17.56
2018-10-18T09:34:20.489Z,17.57
2018-10-18T09:35:20.506Z,17.59
2018-10-18T09:36:20.658Z,17.60
2018-10-18T09:37:20.538Z,17.65
2018-10-18T09:38:20.570Z,17.57
2018-10-18T09:39:20.819Z,17.54
2018-10-18T09:40:23.335Z,17.54
2018-10-18T09:41:20.589Z,17.59
2018-10-18T09:42:20.582Z,17.59
2018-10-18T09:43:22.566Z,17.44
2018-10-18T09:44:20.644Z,17.56
2018-10-18T09:45:20.596Z,17.60
2018-10-18T09:46:20.605Z,17.71
2018-10-18T09:47:21.504Z,17.60
2018-10-18T09:48:22.032Z,17.60
2018-10-18T09:49:20.629Z,17.49
2018-10-18T09:50:20.633Z,17.63
2018-10-18T09:51:20.645Z,17.57
2018-10-18T09:52:20.699Z,17.71
2018-10-18T09:53:20.736Z,17.75
2018-10-18T09:54:20.689Z,17.63
2018-10-18T09:55:20.773Z,17.63
2018-10-18T09:56:20.702Z,17.66
2018-10-18T09:57:20.696Z,17.68
2018-10-18T09:58:20.734Z,17.65
2018-10-18T09:59:20.741Z,17.66
2018-10-18T10:00:20.912Z,17.78
2018-10-18T10:01:20.753Z,17.60
2018-10-18T10:02:20.764Z,17.71
2018-10-18T10:03:21.633Z,17.73
2018-10-18T10:04:20.863Z,17.69
2018-10-18T10:05:20.798Z,17.59
2018-10-18T10:06:21.682Z,17.60
2018-10-18T10:07:20.796Z,17.69
2018-10-18T10:08:20.809Z,17.72
2018-10-18T10:09:20.829Z,17.72
2018-10-18T10:10:20.820Z,17.68
2018-10-18T10:11:20.833Z,17.75
2018-10-18T10:12:20.883Z,17.86
2018-10-18T10:13:20.926Z,17.73
2018-10-18T10:14:20.847Z,17.78
2018-10-18T10:15:20.891Z,17.72
2018-10-18T10:16:20.913Z,17.73
2018-10-18T10:17:20.923Z,17.72
2018-10-18T10:18:21.003Z,17.66
2018-10-18T10:19:20.924Z,17.66
2018-10-18T10:20:21.704Z,17.75
2018-10-18T10:21:20.933Z,17.66
2018-10-18T10:22:20.927Z,17.72
2018-10-18T10:23:21.371Z,17.69
2018-10-18T10:24:20.977Z,17.68
2018-10-18T10:25:21.023Z,17.71
2018-10-18T10:26:20.987Z,17.86
2018-10-18T10:27:20.979Z,17.78
2018-10-18T10:28:20.997Z,17.86
2018-10-18T10:29:21.002Z,17.87
2018-10-18T10:30:21.076Z,17.86
2018-10-18T10:31:21.127Z,17.86
2018-10-18T10:32:21.117Z,17.88
2018-10-18T10:33:21.099Z,17.90
2018-10-18T10:34:21.069Z,18.03
2018-10-18T10:35:21.079Z,17.93
2018-10-18T10:36:21.056Z,17.94
2018-10-18T10:37:21.119Z,17.95
2018-10-18T10:38:21.078Z,18.06
2018-10-18T10:39:21.095Z,18.00
2018-10-18T10:40:21.646Z,17.95
2018-10-18T10:41:21.134Z,18.02
2018-10-18T10:42:21.151Z,17.98
2018-10-18T10:43:22.038Z,18.12
2018-10-18T10:44:21.215Z,18.09
2018-10-18T10:45:21.221Z,17.98
2018-10-18T10:46:21.271Z,18.05
2018-10-18T10:47:21.175Z,18.03
2018-10-18T10:48:21.305Z,18.15
2018-10-18T10:49:21.288Z,18.21
2018-10-18T10:50:21.285Z,18.13
2018-10-18T10:51:21.196Z,18.11
2018-10-18T10:52:21.207Z,18.05
2018-10-18T10:53:21.219Z,18.11
2018-10-18T10:54:21.287Z,18.23
2018-10-18T10:55:21.231Z,18.27
2018-10-18T10:56:21.309Z,18.19
2018-10-18T10:57:22.164Z,18.27
2018-10-18T10:58:21.262Z,18.28
2018-10-18T10:59:21.310Z,18.28
2018-10-18T11:00:21.305Z,18.42
2018-10-18T11:01:21.353Z,18.41
2018-10-18T11:02:21.296Z,18.46
2018-10-18T11:03:21.335Z,18.45
2018-10-18T11:04:21.337Z,18.48
2018-10-18T11:05:21.363Z,18.58
2018-10-18T11:06:21.344Z,18.51
2018-10-18T11:07:21.366Z,18.46
2018-10-18T11:08:21.375Z,18.46
2018-10-18T11:09:21.447Z,18.42
2018-10-18T11:10:21.455Z,18.48
2018-10-18T11:11:21.698Z,18.41
2018-10-18T11:12:21.442Z,18.51
2018-10-18T11:13:21.409Z,18.51
2018-10-18T11:14:21.544Z,18.53
2018-10-18T11:15:21.489Z,18.58
2018-10-18T11:16:21.447Z,18.46
2018-10-18T11:17:22.591Z,18.49
2018-10-18T11:18:21.497Z,18.53
2018-10-18T11:19:21.506Z,18.51
2018-10-18T11:20:21.491Z,18.57
2018-10-18T11:21:21.565Z,18.48
2018-10-18T11:22:21.502Z,18.51
2018-10-18T11:23:21.525Z,18.60
2018-10-18T11:24:21.591Z,18.49
2018-10-18T11:25:21.521Z,18.58
2018-10-18T11:26:21.757Z,18.60
2018-10-18T11:27:21.684Z,18.63
2018-10-18T11:28:21.583Z,18.52
2018-10-18T11:29:21.595Z,18.55
2018-10-18T11:30:21.577Z,18.51
2018-10-18T11:31:21.585Z,18.57
2018-10-18T11:32:21.686Z,18.55
2018-10-18T11:33:21.630Z,18.48
2018-10-18T11:34:21.701Z,18.49
2018-10-18T11:35:21.637Z,18.51
2018-10-18T11:36:21.635Z,18.48
2018-10-18T11:37:21.645Z,18.41
2018-10-18T11:38:21.667Z,18.34
2018-10-18T11:39:21.714Z,18.36
2018-10-18T11:41:28.047Z,18.28
2018-10-18T11:42:21.840Z,18.21
2018-10-18T11:43:21.840Z,18.21
2018-10-18T11:44:21.745Z,18.05
2018-10-18T11:45:21.822Z,17.90
2018-10-18T11:46:21.762Z,18.03
2018-10-18T11:47:22.154Z,17.97
2018-10-18T11:48:22.664Z,17.97
2018-10-18T11:49:22.186Z,17.88
2018-10-18T11:50:22.666Z,18.09
2018-10-18T11:51:21.924Z,18.02
2018-10-18T11:52:21.796Z,17.94
2018-10-18T11:53:21.815Z,17.95
2018-10-18T11:54:21.823Z,18.00
2018-10-18T11:55:21.814Z,17.93
2018-10-18T11:56:21.834Z,17.95
2018-10-18T11:57:23.546Z,18.02
2018-10-18T11:58:21.842Z,18.03
2018-10-18T11:59:21.846Z,18.03
2018-10-18T12:00:21.880Z,18.00
2018-10-18T12:01:22.016Z,18.09
2018-10-18T12:02:21.908Z,18.08
2018-10-18T12:03:21.901Z,18.18
2018-10-18T12:04:21.898Z,18.19
2018-10-18T12:05:21.899Z,18.19
2018-10-18T12:06:22.122Z,18.16
2018-10-18T12:07:21.960Z,18.23
2018-10-18T12:08:22.648Z,18.21
2018-10-18T12:09:21.943Z,18.27
2018-10-18T12:10:21.987Z,18.16
2018-10-18T12:11:22.184Z,18.21
2018-10-18T12:12:22.083Z,18.19
2018-10-18T12:13:22.007Z,18.15
2018-10-18T12:14:22.009Z,18.23
2018-10-18T12:15:22.047Z,18.23
2018-10-18T12:16:22.034Z,18.24
2018-10-18T12:17:22.042Z,18.27
2018-10-18T12:18:22.037Z,18.21
2018-10-18T12:19:22.055Z,18.09
2018-10-18T12:20:22.052Z,18.09
2018-10-18T12:21:22.058Z,18.11
2018-10-18T12:22:22.248Z,18.08
2018-10-18T12:23:22.119Z,18.05
2018-10-18T12:24:22.098Z,18.12
2018-10-18T12:25:22.112Z,18.06
2018-10-18T12:26:22.122Z,18.08
2018-10-18T12:27:22.115Z,18.08
2018-10-18T12:28:22.142Z,18.08
2018-10-18T12:29:22.130Z,17.97
2018-10-18T12:30:22.154Z,18.00
2018-10-18T12:31:22.143Z,17.94
2018-10-18T12:32:22.158Z,17.94
2018-10-18T12:33:22.192Z,17.97
2018-10-18T12:34:22.173Z,17.95
2018-10-18T12:35:22.188Z,17.97
2018-10-18T12:36:22.295Z,17.95
2018-10-18T12:37:22.205Z,18.00
2018-10-18T12:38:22.210Z,18.03
2018-10-18T12:39:22.287Z,17.98
2018-10-18T12:40:22.271Z,17.93
2018-10-18T12:41:22.407Z,18.06
2018-10-18T12:42:22.250Z,18.08
2018-10-18T12:43:22.271Z,18.00
2018-10-18T12:44:22.299Z,18.09
2018-10-18T12:45:22.282Z,17.98
2018-10-18T12:46:22.351Z,17.94
2018-10-18T12:47:23.158Z,18.03
2018-10-18T12:48:22.425Z,17.97
2018-10-18T12:49:22.325Z,18.06
2018-10-18T12:50:22.564Z,18.00
2018-10-18T12:51:22.353Z,17.93
2018-10-18T12:52:22.350Z,17.98
2018-10-18T12:53:22.364Z,18.05